Plainview, Texas
Current Conditions -  °F | °C
As of 8:35 PM on Wednesday 22 Oct 2014 (Local Time) from KPVW Reporting Station
Haze Haze  
Wind Chill: 60°   Ceiling: 600
Heat Index: 60°   Visibility: 5mi
Dew Point: 59°   Wind: 10mph
Humidity: 94%   Direction: 170°S
Pressure: 30.11"   Gusts: NA
Location:  34.2°N, 101.69°W
Report Text: KPVW 230135Z AUTO 17009KT 5SM BR OVC006 16/15 A3011 RMK AO2 T01580148
Loading
Personal Weather Stations






























Interactive Weather Map
Tropical Storm Tracking
New forecast layout! Learn more

10-Day Weather Forecast

Advertisements
Track Severe Weather on mobile